Savannah, GA (31405)

7:27 PM EST on February 10, 2016 (GMT -0500)
Chatham Crescent | | Change Station
CLOSE
Current Station
Personal Weather Station
Location: Savannah, GA
Elevation: 20 ft
Nearby Weather Stations
Active Advisory: Flood Warning

Elev 20 ft 32.04 °N, 81.10 °W | Updated 2 seconds ago

Clear
Clear
38.4 °F
Feels Like 38 °F
N
0.0
Wind Variable Wind from WSW
Gusts 0.0 mph

Today
High -- | Low -- °F
--% Chance of Precip.
Yesterday
High -- | Low -- °F
Precip. -- in
Pressure 30.14 in
Visibility 10.0 miles
Clouds Clear
Windchill 38 °F
Dew Point 19 °F
Humidity 45%
Rainfall 0.00 in
Snow Depth Not available.
7:11 AM 6:06 PM
Waxing Crescent, 8% visible
METAR KSVN 102358Z AUTO 25006KT 10SM CLR 04/M09 A3013 RMK AO2 SLP206 T00351091 10074 20034 52027 $
Pressure 30.14 in
Visibility 10.0 miles
Clouds Clear
Windchill 38 °F
Dew Point 19 °F
Humidity 45%
Rainfall 0.00 in
Snow Depth Not available.
7:11 AM 6:06 PM
Waxing Crescent, 8% visible
METAR KSVN 102358Z AUTO 25006KT 10SM CLR 04/M09 A3013 RMK AO2 SLP206 T00351091 10074 20034 52027 $

10-Day Weather Forecast

Almanac

Astronomy

Feb. 10, 2016 Rise Set
Actual Time
Civil Twilight
Nautical Twilight
Astronomical Twilight
Moon
Length of Visible Light
Length of Day
Tomorrow will be .
, % of the Moon is Illuminated

Today's Extremes

State Highs State Lows

Community

WunderPhotos

Upload Photos

1,891,944 photos uploaded!

WunderBlog® & News

Nearby

Air Quality

  Air Quality AQ Index Pollutant
Not available.

Snow Depth

Station Depth Elevation

Earthquake Activity

City Distance Mag. Time & Date
Minimum magnitude displayed is 2.5.

Coastal Water Temperatures

Place Temperature

Stations

Nearby Weather Stations

Station Location Temp. Windchill Dew Point Humidity Wind Precip. Elev Updated Type
                   

Watches & Warnings

Flood Warning
Issued: 9:39 AM EST Feb. 10, 2016 – National Weather Service

The Flood Warning continues for
the Ogeechee river near Eden.
* At 9 am Wednesday the stage was 13.0 feet.
* Flood stage is 11.0 feet.
* Minor flooding is occurring.
* Forecast, the river will remain nearly steady or slowly fall.
* At 12.0 feet, water encroaches on some homes along dashers Landing
Road and Yarbrough Landing Road. Davis Landing Road also becomes
impassable.


Lat... Lon 3246 8160 3252 8152 3227 8140 3208 8133
          3206 8143 3223 8150